Time;durP1;ratioP1;P1;durP2;ratioP2;P2;SDS_P1;SDS_P2;PMS_P1;PMS_P2;Temp;Humidity;BMP_temperature;BMP_pressure;BME280_temperature;BME280_humidity;BME280_pressure;Samples;Min_cycle;Max_cycle;Signal;HPM_P1;HPM_P2
2023/10/18 00:04:52;;;;;;;26.43;16.60;;;;;;;;;;5156057;27;20561;-65
2023/10/18 00:07:20;;;;;;;32.10;16.90;;;;;;;;;;5141948;27;20499;-65
2023/10/18 00:09:48;;;;;;;28.03;16.90;;;;;;;;;;5136091;27;20471;-65
2023/10/18 00:12:16;;;;;;;26.20;15.30;;;;;;;;;;5122093;27;20465;-66
2023/10/18 00:14:43;;;;;;;28.47;16.03;;;;;;;;;;5116988;28;20558;-67
2023/10/18 00:17:10;;;;;;;26.17;16.57;;;;;;;;;;5115308;28;20927;-66
2023/10/18 00:19:37;;;;;;;28.57;17.13;;;;;;;;;;5123449;28;20525;-67
2023/10/18 00:22:06;;;;;;;25.07;15.70;;;;;;;;;;5116185;28;20495;-66
2023/10/18 00:24:33;;;;;;;28.87;15.40;;;;;;;;;;5128885;28;20455;-66
2023/10/18 00:27:00;;;;;;;27.50;16.23;;;;;;;;;;5119696;27;20462;-66
2023/10/18 00:29:26;;;;;;;25.90;15.70;;;;;;;;;;5116697;28;20462;-67
2023/10/18 00:31:53;;;;;;;27.90;15.73;;;;;;;;;;5117806;28;20453;-65
2023/10/18 00:34:20;;;;;;;27.27;16.07;;;;;;;;;;5119380;28;20494;-67
2023/10/18 00:36:46;;;;;;;32.07;16.03;;;;;;;;;;5117117;28;20442;-68
2023/10/18 00:39:20;;;;;;;24.37;15.17;;;;;;;;;;5117517;28;20446;-68
2023/10/18 00:41:48;;;;;;;27.83;15.87;;;;;;;;;;5122107;28;20458;-68
2023/10/18 00:44:14;;;;;;;32.93;16.50;;;;;;;;;;5115395;27;20541;-68
2023/10/18 00:46:41;;;;;;;25.57;16.00;;;;;;;;;;5120235;28;20521;-68
2023/10/18 00:49:14;;;;;;;26.27;15.90;;;;;;;;;;5119225;28;20470;-68
2023/10/18 00:51:42;;;;;;;36.97;17.50;;;;;;;;;;5110278;28;20902;-67
2023/10/18 00:54:11;;;;;;;31.30;16.30;;;;;;;;;;5117647;28;20574;-67
2023/10/18 00:56:39;;;;;;;30.13;16.37;;;;;;;;;;5114260;28;20450;-68
2023/10/18 00:59:07;;;;;;;29.30;16.70;;;;;;;;;;5115117;28;20461;-66
2023/10/18 01:01:35;;;;;;;27.37;17.47;;;;;;;;;;5115692;28;20488;-66
2023/10/18 01:04:04;;;;;;;25.93;14.20;;;;;;;;;;5122106;28;20553;-67
2023/10/18 01:06:31;;;;;;;33.77;17.80;;;;;;;;;;5121437;28;20541;-66
2023/10/18 01:08:58;;;;;;;28.93;15.63;;;;;;;;;;5115889;28;20457;-66
2023/10/18 01:11:28;;;;;;;30.70;17.53;;;;;;;;;;5120479;28;20494;-65
2023/10/18 01:13:57;;;;;;;33.60;18.90;;;;;;;;;;5115981;28;20505;-67
2023/10/18 01:16:23;;;;;;;36.23;18.50;;;;;;;;;;5101403;28;20489;-65
2023/10/18 01:18:51;;;;;;;28.30;15.23;;;;;;;;;;5101151;28;20477;-65
2023/10/18 01:21:19;;;;;;;27.43;16.63;;;;;;;;;;5100974;28;20546;-65
2023/10/18 01:23:49;;;;;;;27.40;15.93;;;;;;;;;;5101788;28;20482;-66
2023/10/18 01:26:17;;;;;;;24.80;15.73;;;;;;;;;;5102889;28;20447;-66
2023/10/18 01:28:44;;;;;;;37.27;15.70;;;;;;;;;;5105454;28;20449;-66
2023/10/18 01:31:12;;;;;;;28.53;14.77;;;;;;;;;;5110163;28;20459;-66
2023/10/18 01:33:43;;;;;;;22.90;14.80;;;;;;;;;;5110311;28;20483;-67
2023/10/18 01:36:12;;;;;;;18.23;13.83;;;;;;;;;;5107426;28;20454;-65
2023/10/18 01:38:39;;;;;;;30.03;15.77;;;;;;;;;;5100998;28;20533;-66
2023/10/18 01:41:09;;;;;;;27.57;15.40;;;;;;;;;;5105306;28;20529;-65
2023/10/18 01:43:38;;;;;;;30.53;16.50;;;;;;;;;;5102127;28;20459;-66
2023/10/18 01:46:08;;;;;;;25.10;16.30;;;;;;;;;;5102176;28;20465;-66
2023/10/18 01:48:37;;;;;;;25.03;13.03;;;;;;;;;;5100728;28;20466;-65
2023/10/18 01:51:05;;;;;;;24.17;14.80;;;;;;;;;;5104733;28;20454;-66
2023/10/18 01:53:32;;;;;;;26.07;15.40;;;;;;;;;;5104423;28;20477;-65
2023/10/18 01:56:01;;;;;;;23.50;15.17;;;;;;;;;;5100281;28;20629;-65
2023/10/18 01:58:27;;;;;;;23.40;14.70;;;;;;;;;;5101685;28;20466;-66
2023/10/18 02:00:56;;;;;;;24.50;14.47;;;;;;;;;;5099813;28;21065;-65
2023/10/18 02:03:23;;;;;;;22.77;13.27;;;;;;;;;;5099519;28;20502;-66
2023/10/18 02:05:50;;;;;;;27.07;16.00;;;;;;;;;;5102097;28;20959;-67
2023/10/18 02:08:16;;;;;;;24.40;15.67;;;;;;;;;;5104698;28;21048;-66
2023/10/18 02:10:44;;;;;;;22.17;13.37;;;;;;;;;;5107540;28;20542;-65
2023/10/18 02:13:13;;;;;;;21.50;13.60;;;;;;;;;;5104148;28;20466;-65
2023/10/18 02:15:40;;;;;;;31.40;16.77;;;;;;;;;;5107088;28;20839;-68
2023/10/18 02:18:08;;;;;;;21.90;14.53;;;;;;;;;;5102473;28;20898;-68
2023/10/18 02:20:37;;;;;;;26.80;14.27;;;;;;;;;;5101663;28;20455;-68
2023/10/18 02:23:10;;;;;;;21.77;14.00;;;;;;;;;;5105552;28;20506;-69
2023/10/18 02:25:43;;;;;;;23.77;15.43;;;;;;;;;;5106270;28;20457;-69
2023/10/18 02:28:09;;;;;;;31.23;15.17;;;;;;;;;;5099057;28;20554;-69
2023/10/18 02:30:36;;;;;;;23.40;13.83;;;;;;;;;;5099175;28;20995;-69
2023/10/18 02:33:04;;;;;;;25.43;14.27;;;;;;;;;;5100753;28;20485;-69
2023/10/18 02:35:33;;;;;;;27.27;16.00;;;;;;;;;;5101690;28;20486;-68
2023/10/18 02:38:07;;;;;;;29.93;16.77;;;;;;;;;;5100912;28;20447;-68
2023/10/18 02:40:38;;;;;;;30.40;17.77;;;;;;;;;;5098698;28;20447;-68
2023/10/18 02:43:08;;;;;;;28.60;15.20;;;;;;;;;;5104622;28;20491;-67
2023/10/18 02:45:34;;;;;;;28.10;16.57;;;;;;;;;;5099643;28;20455;-68
2023/10/18 02:48:00;;;;;;;22.30;14.87;;;;;;;;;;5098378;28;20510;-66
2023/10/18 02:50:27;;;;;;;31.20;15.67;;;;;;;;;;5101755;28;21053;-64
2023/10/18 02:52:55;;;;;;;27.70;14.67;;;;;;;;;;5103352;28;20726;-64
2023/10/18 02:55:21;;;;;;;29.80;17.33;;;;;;;;;;5102174;28;21102;-65
2023/10/18 02:57:48;;;;;;;26.13;15.70;;;;;;;;;;5098378;28;20450;-65
2023/10/18 03:00:16;;;;;;;27.90;15.50;;;;;;;;;;5103074;28;20481;-65
2023/10/18 03:02:43;;;;;;;29.87;16.97;;;;;;;;;;5104186;28;20459;-64
2023/10/18 03:05:10;;;;;;;32.60;18.40;;;;;;;;;;5099984;28;20534;-65
2023/10/18 03:07:37;;;;;;;23.87;15.67;;;;;;;;;;5099826;28;20458;-64
2023/10/18 03:10:11;;;;;;;28.40;16.00;;;;;;;;;;5099927;28;20451;-64
2023/10/18 03:12:38;;;;;;;28.97;16.97;;;;;;;;;;5096367;28;20963;-65
2023/10/18 03:15:08;;;;;;;34.63;18.10;;;;;;;;;;5102992;28;20483;-65
2023/10/18 03:17:36;;;;;;;30.60;17.30;;;;;;;;;;5102870;28;20596;-65
2023/10/18 03:20:09;;;;;;;26.90;16.27;;;;;;;;;;5099698;28;20470;-65
2023/10/18 03:22:39;;;;;;;21.27;14.90;;;;;;;;;;5102804;28;20465;-65
2023/10/18 03:25:12;;;;;;;25.10;15.63;;;;;;;;;;5102841;28;20455;-64
2023/10/18 03:27:42;;;;;;;28.63;17.57;;;;;;;;;;5101573;28;21043;-64
2023/10/18 03:30:17;;;;;;;27.70;15.73;;;;;;;;;;5103789;28;20486;-65
2023/10/18 03:32:44;;;;;;;34.60;17.87;;;;;;;;;;5098820;28;20442;-64
2023/10/18 03:35:13;;;;;;;35.90;17.00;;;;;;;;;;5098238;28;20478;-64
2023/10/18 03:37:40;;;;;;;33.33;18.83;;;;;;;;;;5104521;28;20446;-64
2023/10/18 03:40:17;;;;;;;29.33;17.13;;;;;;;;;;5102360;28;20454;-64
2023/10/18 03:42:45;;;;;;;36.00;19.97;;;;;;;;;;5101785;28;20459;-64
2023/10/18 03:45:11;;;;;;;27.70;18.00;;;;;;;;;;5106426;28;20862;-65
2023/10/18 03:47:38;;;;;;;27.07;17.57;;;;;;;;;;5099897;28;20485;-65
2023/10/18 03:50:08;;;;;;;34.20;18.73;;;;;;;;;;5098772;28;20458;-64
2023/10/18 03:52:35;;;;;;;31.80;18.13;;;;;;;;;;5100681;28;20474;-68
2023/10/18 03:55:12;;;;;;;35.53;18.90;;;;;;;;;;5103759;28;20491;-67
2023/10/18 03:57:41;;;;;;;33.97;18.53;;;;;;;;;;5099527;28;20899;-68
2023/10/18 04:03:09;;;;;;;33.27;18.87;;;;;;;;;;5109485;27;20602;-68
2023/10/18 04:05:41;;;;;;;29.10;15.93;;;;;;;;;;5095235;28;20447;-68
2023/10/18 04:08:07;;;;;;;31.47;17.27;;;;;;;;;;5096465;28;20451;-69
2023/10/18 04:10:36;;;;;;;28.37;16.87;;;;;;;;;;5095904;28;20453;-70
2023/10/18 04:13:03;;;;;;;31.53;17.23;;;;;;;;;;5085970;28;20911;-69
2023/10/18 04:15:37;;;;;;;29.20;16.50;;;;;;;;;;5075613;28;20523;-70
2023/10/18 04:18:12;;;;;;;31.37;18.00;;;;;;;;;;5076925;28;21418;-71
2023/10/18 04:20:40;;;;;;;29.83;18.07;;;;;;;;;;5075358;28;20582;-70
2023/10/18 04:23:14;;;;;;;27.30;16.80;;;;;;;;;;5076397;28;20460;-70
2023/10/18 04:25:41;;;;;;;31.87;18.30;;;;;;;;;;5077946;28;20463;-71
2023/10/18 04:28:08;;;;;;;28.20;17.00;;;;;;;;;;5081480;28;20503;-71
2023/10/18 04:30:37;;;;;;;34.10;18.63;;;;;;;;;;5076612;28;21008;-71
2023/10/18 04:33:21;;;;;;;29.60;18.87;;;;;;;;;;5083974;28;20488;-70
2023/10/18 04:35:52;;;;;;;31.50;17.93;;;;;;;;;;5083741;28;20464;-70
2023/10/18 04:38:22;;;;;;;27.90;16.50;;;;;;;;;;5075523;28;20460;-70
2023/10/18 04:41:01;;;;;;;32.80;16.20;;;;;;;;;;5079831;28;20531;-69
2023/10/18 04:43:28;;;;;;;31.97;17.33;;;;;;;;;;5076520;28;20599;-71
2023/10/18 04:45:55;;;;;;;22.33;14.50;;;;;;;;;;5074587;28;20887;-69
2023/10/18 04:48:44;;;;;;;35.80;18.30;;;;;;;;;;5084830;28;20481;-70
2023/10/18 04:51:26;;;;;;;31.20;17.40;;;;;;;;;;5079420;28;20507;-70
2023/10/18 04:53:53;;;;;;;32.20;16.50;;;;;;;;;;5076814;28;20788;-70
2023/10/18 04:56:20;;;;;;;31.70;15.87;;;;;;;;;;5075308;28;20494;-69
2023/10/18 04:58:46;;;;;;;30.67;18.77;;;;;;;;;;5067999;28;20452;-71
2023/10/18 05:01:13;;;;;;;27.77;16.03;;;;;;;;;;5076189;28;20488;-70
2023/10/18 05:03:43;;;;;;;33.73;16.07;;;;;;;;;;5086033;28;20197;-71
2023/10/18 05:06:13;;;;;;;28.70;16.07;;;;;;;;;;5077433;28;20996;-70
2023/10/18 05:08:42;;;;;;;27.10;16.60;;;;;;;;;;5073542;28;20513;-70
2023/10/18 05:11:22;;;;;;;25.27;13.60;;;;;;;;;;5078384;28;20479;-68
2023/10/18 05:13:49;;;;;;;33.27;16.97;;;;;;;;;;5070589;28;21008;-70
2023/10/18 05:16:16;;;;;;;30.70;16.97;;;;;;;;;;5064650;28;20488;-69
2023/10/18 05:18:44;;;;;;;28.37;17.53;;;;;;;;;;5055888;28;20476;-70
2023/10/18 05:21:20;;;;;;;29.43;17.13;;;;;;;;;;5065106;28;20464;-69
2023/10/18 05:23:49;;;;;;;25.97;16.80;;;;;;;;;;5069626;28;20461;-69
2023/10/18 05:26:18;;;;;;;35.73;16.93;;;;;;;;;;5064333;28;20483;-67
2023/10/18 05:28:48;;;;;;;32.67;18.90;;;;;;;;;;5065118;28;20883;-67
2023/10/18 05:34:04;;;;;;;35.53;17.90;;;;;;;;;;5062631;28;20471;-66
2023/10/18 05:36:36;;;;;;;39.40;17.43;;;;;;;;;;5057891;28;20490;-65
2023/10/18 05:41:56;;;;;;;30.73;18.53;;;;;;;;;;5007562;28;20436;-66
2023/10/18 05:44:23;;;;;;;34.43;19.00;;;;;;;;;;5056582;28;20457;-64
2023/10/18 05:46:50;;;;;;;31.17;18.47;;;;;;;;;;5069656;28;20551;-64
2023/10/18 05:49:23;;;;;;;34.27;19.40;;;;;;;;;;5064219;28;20517;-64
2023/10/18 05:51:55;;;;;;;37.90;19.57;;;;;;;;;;5057324;28;20488;-63
2023/10/18 05:54:22;;;;;;;33.40;19.63;;;;;;;;;;5061763;28;20860;-67
2023/10/18 05:56:50;;;;;;;32.33;20.80;;;;;;;;;;5063722;28;20962;-68
2023/10/18 05:59:27;;;;;;;35.37;18.63;;;;;;;;;;5068557;28;20445;-67
2023/10/18 06:01:57;;;;;;;34.60;17.70;;;;;;;;;;5067436;28;20638;-68
2023/10/18 06:04:24;;;;;;;35.40;17.87;;;;;;;;;;5058234;28;20473;-67
2023/10/18 06:06:55;;;;;;;39.77;19.23;;;;;;;;;;5062222;28;20910;-67
2023/10/18 06:09:27;;;;;;;34.73;19.87;;;;;;;;;;5061019;28;20516;-67
2023/10/18 06:11:55;;;;;;;43.30;20.73;;;;;;;;;;5059250;28;20583;-67
2023/10/18 06:14:25;;;;;;;31.00;18.43;;;;;;;;;;5060033;28;20492;-68
2023/10/18 06:16:52;;;;;;;26.97;17.37;;;;;;;;;;5060287;28;21014;-68
2023/10/18 06:19:25;;;;;;;34.00;20.33;;;;;;;;;;5061938;28;20492;-68
2023/10/18 06:21:57;;;;;;;42.10;20.60;;;;;;;;;;5069092;28;20452;-67
2023/10/18 06:24:24;;;;;;;39.17;20.27;;;;;;;;;;5061406;28;20449;-67
2023/10/18 06:26:52;;;;;;;38.20;21.40;;;;;;;;;;5065500;28;20461;-68
2023/10/18 06:29:23;;;;;;;39.37;21.87;;;;;;;;;;5060470;28;20461;-67
2023/10/18 06:31:50;;;;;;;40.33;20.90;;;;;;;;;;5059827;28;20496;-66
2023/10/18 06:34:17;;;;;;;37.40;21.27;;;;;;;;;;5061699;28;21053;-67
2023/10/18 06:36:44;;;;;;;37.27;20.50;;;;;;;;;;5059034;28;20475;-66
2023/10/18 06:39:24;;;;;;;40.90;20.30;;;;;;;;;;5062812;28;20444;-67
2023/10/18 06:41:51;;;;;;;40.77;20.73;;;;;;;;;;5053542;28;20463;-67
2023/10/18 06:44:18;;;;;;;42.30;22.37;;;;;;;;;;5072162;28;20456;-66
2023/10/18 06:46:47;;;;;;;35.23;19.30;;;;;;;;;;5067382;28;20460;-67
2023/10/18 06:49:13;;;;;;;40.53;21.97;;;;;;;;;;5068332;28;20872;-67
2023/10/18 06:51:43;;;;;;;39.10;21.27;;;;;;;;;;5062967;28;21506;-65
2023/10/18 06:54:14;;;;;;;45.77;22.53;;;;;;;;;;5057395;28;20476;-67
2023/10/18 06:56:45;;;;;;;45.47;24.07;;;;;;;;;;5066760;28;20464;-67
2023/10/18 06:59:13;;;;;;;45.97;23.07;;;;;;;;;;5062840;28;20452;-67
2023/10/18 07:01:44;;;;;;;40.77;22.17;;;;;;;;;;5055728;28;20488;-67
2023/10/18 07:04:17;;;;;;;44.53;20.43;;;;;;;;;;5061086;28;21011;-66
2023/10/18 07:06:45;;;;;;;44.03;20.30;;;;;;;;;;5060205;28;20460;-66
2023/10/18 07:09:24;;;;;;;40.93;21.60;;;;;;;;;;5062800;28;20448;-66
2023/10/18 07:11:53;;;;;;;40.60;21.77;;;;;;;;;;5058993;28;20523;-66
2023/10/18 07:14:20;;;;;;;42.00;21.70;;;;;;;;;;5060119;28;20453;-65
2023/10/18 07:16:48;;;;;;;42.27;22.63;;;;;;;;;;5063271;28;20472;-65
2023/10/18 07:19:27;;;;;;;36.80;20.83;;;;;;;;;;5065972;28;20476;-67
2023/10/18 07:21:53;;;;;;;46.33;21.30;;;;;;;;;;5057986;28;20520;-67
2023/10/18 07:24:20;;;;;;;43.37;23.27;;;;;;;;;;5064708;28;20460;-67
2023/10/18 07:26:47;;;;;;;43.10;22.73;;;;;;;;;;5058731;28;21052;-66
2023/10/18 07:29:15;;;;;;;39.63;22.90;;;;;;;;;;5059764;28;20442;-66
2023/10/18 07:31:44;;;;;;;48.03;23.17;;;;;;;;;;5057575;28;20492;-66
2023/10/18 07:34:17;;;;;;;41.93;22.27;;;;;;;;;;5063773;28;20452;-67
2023/10/18 07:36:45;;;;;;;39.60;23.70;;;;;;;;;;5060377;28;20467;-66
2023/10/18 07:39:12;;;;;;;43.47;23.90;;;;;;;;;;5068672;28;20492;-66
2023/10/18 07:41:39;;;;;;;48.93;24.17;;;;;;;;;;5065929;28;20467;-66
2023/10/18 07:44:05;;;;;;;41.03;23.60;;;;;;;;;;5061804;28;20452;-66
2023/10/18 07:46:34;;;;;;;38.93;21.40;;;;;;;;;;5054571;28;20454;-66
2023/10/18 07:49:05;;;;;;;34.90;20.93;;;;;;;;;;5064496;28;20518;-66
2023/10/18 07:51:34;;;;;;;35.40;20.17;;;;;;;;;;5063684;28;20460;-66
2023/10/18 07:54:01;;;;;;;32.97;21.47;;;;;;;;;;5054835;28;20473;-66
2023/10/18 07:56:29;;;;;;;33.27;20.30;;;;;;;;;;5061185;28;20475;-66
2023/10/18 07:59:26;;;;;;;31.60;19.90;;;;;;;;;;5065975;28;20456;-65
2023/10/18 08:01:52;;;;;;;21.40;16.73;;;;;;;;;;5058593;28;20500;-66
2023/10/18 08:04:20;;;;;;;24.17;17.30;;;;;;;;;;5068444;28;20453;-66
2023/10/18 08:06:48;;;;;;;23.60;17.33;;;;;;;;;;5063273;28;20840;-66
2023/10/18 08:09:17;;;;;;;22.70;15.47;;;;;;;;;;5052847;28;20464;-65
2023/10/18 08:11:44;;;;;;;22.40;15.87;;;;;;;;;;5063435;28;20471;-67
2023/10/18 08:14:16;;;;;;;20.07;13.77;;;;;;;;;;5061153;28;20453;-67
2023/10/18 08:16:43;;;;;;;17.97;13.37;;;;;;;;;;5059084;28;20528;-67
2023/10/18 08:19:10;;;;;;;15.30;11.97;;;;;;;;;;5050787;28;20838;-66
2023/10/18 08:21:37;;;;;;;18.90;12.13;;;;;;;;;;5062879;28;20560;-66
2023/10/18 08:24:08;;;;;;;18.77;13.03;;;;;;;;;;5060692;28;20445;-66
2023/10/18 08:26:45;;;;;;;16.20;12.27;;;;;;;;;;5067509;28;20516;-65
2023/10/18 08:29:12;;;;;;;25.13;14.20;;;;;;;;;;5059009;28;20453;-65
2023/10/18 08:31:38;;;;;;;14.83;12.10;;;;;;;;;;5058846;28;20487;-65
2023/10/18 08:34:06;;;;;;;16.83;12.33;;;;;;;;;;5054070;28;20485;-65
2023/10/18 08:36:32;;;;;;;17.40;12.77;;;;;;;;;;5059514;28;20452;-65
2023/10/18 08:38:59;;;;;;;13.50;11.47;;;;;;;;;;5062247;28;20452;-65
2023/10/18 08:41:32;;;;;;;16.03;11.77;;;;;;;;;;5065805;28;20772;-65
2023/10/18 08:44:05;;;;;;;14.00;11.33;;;;;;;;;;5064044;28;20950;-65
2023/10/18 08:46:36;;;;;;;17.60;12.37;;;;;;;;;;5067146;28;20467;-65
2023/10/18 08:49:04;;;;;;;13.07;10.53;;;;;;;;;;5063661;28;20538;-65
2023/10/18 08:51:32;;;;;;;14.60;10.70;;;;;;;;;;5060828;28;21294;-65
2023/10/18 08:54:01;;;;;;;12.23;10.00;;;;;;;;;;5054428;28;20488;-65
2023/10/18 08:56:29;;;;;;;18.00;12.50;;;;;;;;;;5061365;28;20458;-65
2023/10/18 08:58:56;;;;;;;13.67;10.73;;;;;;;;;;5061451;28;20483;-65
2023/10/18 09:01:23;;;;;;;16.47;12.10;;;;;;;;;;5060812;28;20499;-65
2023/10/18 09:03:49;;;;;;;13.27;10.77;;;;;;;;;;5065191;28;20451;-65
2023/10/18 09:06:30;;;;;;;17.63;12.10;;;;;;;;;;5053946;28;20520;-65
2023/10/18 09:09:05;;;;;;;15.20;11.53;;;;;;;;;;5060241;28;20456;-67
2023/10/18 09:11:31;;;;;;;14.30;10.70;;;;;;;;;;5070326;28;20490;-65
2023/10/18 09:14:11;;;;;;;13.70;11.00;;;;;;;;;;5063160;28;20575;-65
2023/10/18 09:16:37;;;;;;;12.00;10.17;;;;;;;;;;5064784;28;20449;-65
2023/10/18 09:19:04;;;;;;;14.17;10.07;;;;;;;;;;5064832;28;20524;-65
2023/10/18 09:21:36;;;;;;;13.50;9.80;;;;;;;;;;5060893;28;20476;-66
2023/10/18 09:24:06;;;;;;;13.50;10.60;;;;;;;;;;5063400;28;20553;-65
2023/10/18 09:26:35;;;;;;;13.53;10.73;;;;;;;;;;5065984;28;20449;-65
2023/10/18 09:29:03;;;;;;;14.67;10.63;;;;;;;;;;5065250;28;20453;-66
2023/10/18 09:31:32;;;;;;;16.77;10.90;;;;;;;;;;5066206;28;20487;-65
2023/10/18 09:33:59;;;;;;;16.80;10.73;;;;;;;;;;5058419;28;20942;-65
2023/10/18 09:36:27;;;;;;;13.30;10.87;;;;;;;;;;5061022;28;20453;-65
2023/10/18 09:38:54;;;;;;;13.70;10.30;;;;;;;;;;5063062;28;20540;-65
2023/10/18 09:41:22;;;;;;;15.43;10.30;;;;;;;;;;5063143;28;20452;-65
2023/10/18 09:43:49;;;;;;;12.73;10.03;;;;;;;;;;5063983;28;20481;-65
2023/10/18 09:46:16;;;;;;;12.87;9.73;;;;;;;;;;5071266;28;20471;-65
2023/10/18 09:48:44;;;;;;;12.67;9.50;;;;;;;;;;5065298;28;20453;-65
2023/10/18 09:51:14;;;;;;;11.67;10.00;;;;;;;;;;5070545;28;20881;-65
2023/10/18 09:53:43;;;;;;;13.70;9.33;;;;;;;;;;5058377;28;20472;-65
2023/10/18 09:56:11;;;;;;;14.70;10.60;;;;;;;;;;5062468;28;20956;-65
2023/10/18 09:58:43;;;;;;;12.00;10.70;;;;;;;;;;5049370;28;20485;-65
2023/10/18 10:01:25;;;;;;;13.10;9.83;;;;;;;;;;5063028;28;20510;-66
2023/10/18 10:03:52;;;;;;;10.57;8.87;;;;;;;;;;5069153;28;20702;-65
2023/10/18 10:06:21;;;;;;;11.90;9.50;;;;;;;;;;5067370;28;20914;-65
2023/10/18 10:08:48;;;;;;;11.87;9.90;;;;;;;;;;5067691;28;20635;-65
2023/10/18 10:11:19;;;;;;;13.13;8.80;;;;;;;;;;5063178;28;20465;-65
2023/10/18 10:13:49;;;;;;;11.73;10.30;;;;;;;;;;5059934;28;21029;-65
2023/10/18 10:16:18;;;;;;;12.20;8.40;;;;;;;;;;5061758;28;20503;-65
2023/10/18 10:18:47;;;;;;;9.90;8.90;;;;;;;;;;5071717;28;20448;-65
2023/10/18 10:21:16;;;;;;;12.33;9.60;;;;;;;;;;5062135;28;20480;-65
2023/10/18 10:23:43;;;;;;;9.80;8.63;;;;;;;;;;5070738;28;20455;-65
2023/10/18 10:26:15;;;;;;;8.93;8.00;;;;;;;;;;5067919;28;20489;-66
2023/10/18 10:31:56;;;;;;;10.47;9.10;;;;;;;;;;5058141;28;20460;-65
2023/10/18 10:34:26;;;;;;;9.17;8.07;;;;;;;;;;5063773;28;20476;-65
2023/10/18 10:36:53;;;;;;;11.37;9.13;;;;;;;;;;5062525;28;20466;-67
2023/10/18 10:39:30;;;;;;;10.00;9.00;;;;;;;;;;5067517;28;20500;-65
2023/10/18 10:42:00;;;;;;;9.43;8.27;;;;;;;;;;5059406;28;20456;-65
2023/10/18 10:44:30;;;;;;;9.93;8.90;;;;;;;;;;5051652;28;20468;-65
2023/10/18 10:47:11;;;;;;;9.07;7.60;;;;;;;;;;5059465;28;20463;-65
2023/10/18 10:49:49;;;;;;;8.77;7.87;;;;;;;;;;5069812;28;20433;-66
2023/10/18 10:52:18;;;;;;;12.33;8.83;;;;;;;;;;5060405;28;20469;-66
2023/10/18 10:54:48;;;;;;;8.90;8.00;;;;;;;;;;5070486;28;20468;-66
2023/10/18 10:57:15;;;;;;;9.57;8.57;;;;;;;;;;5067820;28;20517;-65
2023/10/18 10:59:50;;;;;;;11.03;9.77;;;;;;;;;;5059043;28;20503;-65
2023/10/18 11:02:24;;;;;;;9.13;8.33;;;;;;;;;;5073233;28;20475;-66
2023/10/18 11:04:57;;;;;;;11.03;7.83;;;;;;;;;;5066564;28;20453;-65
2023/10/18 11:07:25;;;;;;;9.43;8.20;;;;;;;;;;5066169;28;20459;-65
2023/10/18 11:09:59;;;;;;;9.90;8.13;;;;;;;;;;5069107;28;20483;-65
2023/10/18 11:12:27;;;;;;;8.17;7.47;;;;;;;;;;5051621;28;20457;-65
2023/10/18 11:14:54;;;;;;;9.23;8.30;;;;;;;;;;5060735;28;20488;-65
2023/10/18 11:17:23;;;;;;;10.17;7.87;;;;;;;;;;5059070;28;20479;-65
2023/10/18 11:19:53;;;;;;;9.67;8.67;;;;;;;;;;5057374;28;20453;-66
2023/10/18 11:22:22;;;;;;;9.63;8.63;;;;;;;;;;5057883;28;20471;-66
2023/10/18 11:24:50;;;;;;;9.97;8.20;;;;;;;;;;5060469;28;20813;-66
2023/10/18 11:27:18;;;;;;;8.20;7.40;;;;;;;;;;5064399;28;21058;-65
2023/10/18 11:29:45;;;;;;;8.70;7.90;;;;;;;;;;5068012;28;20455;-65
2023/10/18 11:32:17;;;;;;;9.40;7.10;;;;;;;;;;5059675;28;20461;-65
2023/10/18 11:34:44;;;;;;;9.27;8.20;;;;;;;;;;5052820;28;20526;-65
2023/10/18 11:37:13;;;;;;;9.83;7.63;;;;;;;;;;5058952;28;20479;-65
2023/10/18 11:39:41;;;;;;;8.70;7.40;;;;;;;;;;5056990;28;21008;-65
2023/10/18 11:42:10;;;;;;;6.87;6.27;;;;;;;;;;5058348;28;20452;-65
2023/10/18 11:44:39;;;;;;;8.83;7.23;;;;;;;;;;5055709;28;20527;-65
2023/10/18 11:47:11;;;;;;;9.00;7.93;;;;;;;;;;5054902;28;21048;-65
2023/10/18 11:49:38;;;;;;;7.03;6.43;;;;;;;;;;5059777;28;20433;-65
2023/10/18 11:52:05;;;;;;;7.33;6.37;;;;;;;;;;5061372;28;20528;-65
2023/10/18 11:54:32;;;;;;;8.27;7.47;;;;;;;;;;5070084;28;20996;-65
2023/10/18 11:57:01;;;;;;;8.00;7.27;;;;;;;;;;5062993;28;20457;-66
2023/10/18 11:59:30;;;;;;;8.97;6.57;;;;;;;;;;5058425;28;20499;-66
2023/10/18 12:01:57;;;;;;;7.87;7.13;;;;;;;;;;5050689;28;20485;-66
2023/10/18 12:04:28;;;;;;;7.33;6.60;;;;;;;;;;5066014;28;20502;-66
2023/10/18 12:06:56;;;;;;;7.97;7.27;;;;;;;;;;5063838;28;20444;-66
2023/10/18 12:09:30;;;;;;;9.50;6.60;;;;;;;;;;5064970;28;20795;-66
2023/10/18 12:11:57;;;;;;;7.37;6.67;;;;;;;;;;5054508;28;20468;-66
2023/10/18 12:14:25;;;;;;;8.37;6.20;;;;;;;;;;5057904;28;20515;-65
2023/10/18 12:16:54;;;;;;;7.10;6.43;;;;;;;;;;5067747;28;20460;-66
2023/10/18 12:19:20;;;;;;;7.73;6.97;;;;;;;;;;5059600;28;20467;-66
2023/10/18 12:21:54;;;;;;;7.33;6.70;;;;;;;;;;5058718;28;20512;-66
2023/10/18 12:24:20;;;;;;;7.33;6.60;;;;;;;;;;5069091;28;20479;-66
2023/10/18 12:26:48;;;;;;;6.87;6.03;;;;;;;;;;5065920;28;20483;-65
2023/10/18 12:29:17;;;;;;;8.60;7.30;;;;;;;;;;5064304;28;20464;-65
2023/10/18 12:31:52;;;;;;;6.43;6.03;;;;;;;;;;5062918;28;20985;-66
2023/10/18 12:34:21;;;;;;;9.23;6.90;;;;;;;;;;5059648;28;20941;-66
2023/10/18 12:36:49;;;;;;;6.53;5.90;;;;;;;;;;5065706;28;20466;-66
2023/10/18 12:39:20;;;;;;;6.40;5.80;;;;;;;;;;5062379;28;20453;-65
2023/10/18 12:41:52;;;;;;;7.03;6.33;;;;;;;;;;5058979;28;20909;-66
2023/10/18 12:44:19;;;;;;;7.37;6.63;;;;;;;;;;5074592;28;20479;-65
2023/10/18 12:46:50;;;;;;;10.77;6.50;;;;;;;;;;5072541;28;20449;-65
2023/10/18 12:49:22;;;;;;;7.33;6.63;;;;;;;;;;5062185;28;20451;-66
2023/10/18 12:51:57;;;;;;;6.37;5.83;;;;;;;;;;5058273;28;20486;-66
2023/10/18 12:54:29;;;;;;;9.83;6.30;;;;;;;;;;5062029;28;20507;-66
2023/10/18 12:56:56;;;;;;;5.73;5.23;;;;;;;;;;5057382;28;20481;-65
2023/10/18 12:59:24;;;;;;;7.40;5.80;;;;;;;;;;5064325;28;20463;-65
2023/10/18 13:01:58;;;;;;;6.67;6.07;;;;;;;;;;5061336;28;20498;-65
2023/10/18 13:04:24;;;;;;;5.90;5.30;;;;;;;;;;5062732;28;20475;-65
2023/10/18 13:06:50;;;;;;;5.87;5.37;;;;;;;;;;5068036;28;20465;-65
2023/10/18 13:09:19;;;;;;;5.77;5.30;;;;;;;;;;5075907;28;20212;-66
2023/10/18 13:11:47;;;;;;;5.27;4.87;;;;;;;;;;5071753;28;20456;-66
2023/10/18 13:14:14;;;;;;;6.93;6.40;;;;;;;;;;5058688;28;20488;-66
2023/10/18 13:16:41;;;;;;;7.17;6.57;;;;;;;;;;5063343;28;20651;-66
2023/10/18 13:19:10;;;;;;;6.90;6.30;;;;;;;;;;5060260;28;20463;-66
2023/10/18 13:21:39;;;;;;;11.20;6.80;;;;;;;;;;5058919;28;20527;-66
2023/10/18 13:24:16;;;;;;;9.70;6.17;;;;;;;;;;5058723;28;20459;-65
2023/10/18 13:26:43;;;;;;;7.63;6.93;;;;;;;;;;5066026;28;20524;-66
2023/10/18 13:29:16;;;;;;;7.97;6.80;;;;;;;;;;5078545;28;20451;-65
2023/10/18 13:31:44;;;;;;;7.80;6.40;;;;;;;;;;5061862;28;20464;-66
2023/10/18 13:34:19;;;;;;;8.87;7.10;;;;;;;;;;5062459;28;20511;-66
2023/10/18 13:36:46;;;;;;;9.00;7.37;;;;;;;;;;5068491;28;20548;-66
2023/10/18 13:39:12;;;;;;;8.10;7.40;;;;;;;;;;5062876;28;20683;-66
2023/10/18 13:41:39;;;;;;;6.87;5.60;;;;;;;;;;5064194;28;20495;-67
2023/10/18 13:44:08;;;;;;;7.27;6.20;;;;;;;;;;5064804;28;20483;-66
2023/10/18 13:46:36;;;;;;;7.47;6.30;;;;;;;;;;5061515;28;20647;-65
2023/10/18 13:49:03;;;;;;;9.00;8.10;;;;;;;;;;5074536;28;20452;-66
2023/10/18 13:51:34;;;;;;;8.77;6.67;;;;;;;;;;5064245;28;20472;-65
2023/10/18 13:54:01;;;;;;;10.50;7.13;;;;;;;;;;5063614;28;20501;-65
2023/10/18 13:56:29;;;;;;;8.53;7.43;;;;;;;;;;5065847;28;20535;-66
2023/10/18 13:58:55;;;;;;;7.13;6.47;;;;;;;;;;5061967;28;20471;-66
2023/10/18 14:01:24;;;;;;;8.60;7.70;;;;;;;;;;5061410;28;20849;-65
2023/10/18 14:03:51;;;;;;;7.13;6.43;;;;;;;;;;5061740;28;20452;-66
2023/10/18 14:06:18;;;;;;;7.47;6.80;;;;;;;;;;5060878;28;20460;-65
2023/10/18 14:08:47;;;;;;;7.40;6.70;;;;;;;;;;5063779;28;20480;-65
2023/10/18 14:11:14;;;;;;;8.10;6.53;;;;;;;;;;5061081;28;20460;-66
2023/10/18 14:13:41;;;;;;;8.30;7.57;;;;;;;;;;5059670;28;20488;-65
2023/10/18 14:16:12;;;;;;;6.73;6.10;;;;;;;;;;5065492;28;20452;-66
2023/10/18 14:18:40;;;;;;;9.10;6.60;;;;;;;;;;5064857;28;20456;-66
2023/10/18 14:21:12;;;;;;;9.80;7.47;;;;;;;;;;5060842;28;20472;-66
2023/10/18 14:23:38;;;;;;;8.57;7.77;;;;;;;;;;5060266;28;20452;-65
2023/10/18 14:26:06;;;;;;;12.70;7.60;;;;;;;;;;5060924;28;20468;-66
2023/10/18 14:28:33;;;;;;;10.20;7.00;;;;;;;;;;5054518;28;20530;-66
2023/10/18 14:30:59;;;;;;;8.40;7.70;;;;;;;;;;5064764;28;20520;-65
2023/10/18 14:33:27;;;;;;;7.37;6.77;;;;;;;;;;5056029;28;20442;-65
2023/10/18 14:35:53;;;;;;;9.10;7.50;;;;;;;;;;5060071;28;20489;-66
2023/10/18 14:38:19;;;;;;;8.40;7.53;;;;;;;;;;5071592;28;20469;-66
2023/10/18 14:40:46;;;;;;;8.20;7.40;;;;;;;;;;5059667;28;20562;-66
2023/10/18 14:43:14;;;;;;;7.83;6.40;;;;;;;;;;5056861;28;20468;-66
2023/10/18 14:45:41;;;;;;;6.93;6.10;;;;;;;;;;5058881;28;20479;-66
2023/10/18 14:48:08;;;;;;;6.50;5.90;;;;;;;;;;5059951;28;20464;-66
2023/10/18 14:50:35;;;;;;;6.70;6.10;;;;;;;;;;5065536;28;20447;-66
2023/10/18 14:53:01;;;;;;;7.13;5.87;;;;;;;;;;5060020;28;20452;-65